Time;durP1;ratioP1;P1;durP2;ratioP2;P2;SDS_P1;SDS_P2;PMS_P1;PMS_P2;Temp;Humidity;BMP_temperature;BMP_pressure;BME280_temperature;BME280_humidity;BME280_pressure;Samples;Min_cycle;Max_cycle;Signal;HPM_P1;HPM_P2
2021/08/02 00:01:03;;;;;;;12.10;11.00;;;;;;;14.98;79.91;99741.27;1640077;87;21538;-77
2021/08/02 00:03:32;;;;;;;12.65;11.35;;;;;;;14.96;79.93;99745.50;1638590;87;21227;-78
2021/08/02 00:05:58;;;;;;;13.30;11.50;;;;;;;14.95;79.96;99737.67;1636438;86;21058;-78
2021/08/02 00:08:26;;;;;;;13.68;11.50;;;;;;;14.94;79.96;99737.36;1615798;87;21109;-78
2021/08/02 00:10:52;;;;;;;21.85;11.35;;;;;;;14.92;80.02;99736.73;1640091;87;21028;-77
2021/08/02 00:13:31;;;;;;;17.57;12.43;;;;;;;14.91;80.04;99745.85;1639878;87;21051;-77
2021/08/02 00:16:01;;;;;;;20.27;15.25;;;;;;;14.89;80.07;99745.22;1640059;87;21975;-77
2021/08/02 00:18:27;;;;;;;15.50;13.55;;;;;;;14.88;80.12;99751.10;1640029;87;21052;-77
2021/08/02 00:20:55;;;;;;;16.73;13.03;;;;;;;14.88;80.14;99744.94;1640112;87;21579;-77
2021/08/02 00:23:21;;;;;;;15.95;13.28;;;;;;;14.87;80.07;99745.45;1639912;87;21031;-77
2021/08/02 00:25:47;;;;;;;22.82;15.55;;;;;;;14.86;80.19;99739.77;1639883;87;21046;-77
2021/08/02 00:28:14;;;;;;;19.67;14.73;;;;;;;14.84;80.23;99737.00;1639951;87;21182;-77
2021/08/02 00:30:40;;;;;;;23.52;13.15;;;;;;;14.86;80.29;99738.94;1639759;87;21098;-77
2021/08/02 00:33:08;;;;;;;13.68;11.78;;;;;;;14.84;80.30;99735.66;1639926;87;21082;-77
2021/08/02 00:35:34;;;;;;;16.20;12.28;;;;;;;14.83;80.30;99731.31;1639770;86;21046;-77
2021/08/02 00:38:08;;;;;;;13.68;12.25;;;;;;;14.83;80.30;99731.31;1639904;87;21070;-78
2021/08/02 00:40:52;;;;;;;13.65;11.73;;;;;;;14.81;80.38;99730.72;1638801;86;21545;-78
2021/08/02 00:43:55;;;;;;;19.73;13.83;;;;;;;14.79;80.43;99736.29;1562867;87;21625;-77
2021/08/02 00:46:25;;;;;;;17.12;14.15;;;;;;;14.78;80.41;99733.30;1639962;87;21023;-77
2021/08/02 00:49:05;;;;;;;15.13;13.55;;;;;;;14.75;80.47;99726.19;1640008;87;21505;-78
2021/08/02 00:51:36;;;;;;;;;;;;;;;14.76;80.49;99733.20;1639723;87;21106;-78
2021/08/02 00:54:02;;;;;;;16.02;13.90;;;;;;;14.74;80.52;99732.61;1639925;87;21251;-77
2021/08/02 00:56:32;;;;;;;15.80;14.15;;;;;;;14.72;80.46;99729.30;1639502;87;21106;-77
2021/08/02 00:59:05;;;;;;;15.03;13.50;;;;;;;14.72;80.53;99731.98;1639919;87;21467;-77
2021/08/02 01:01:36;;;;;;;17.25;12.80;;;;;;;14.72;80.57;99732.81;1639830;87;21015;-77
2021/08/02 01:04:03;;;;;;;15.43;13.83;;;;;;;14.72;80.58;99730.64;1639764;87;21095;-78
2021/08/02 01:06:31;;;;;;;16.02;13.28;;;;;;;14.61;80.58;99713.34;1639781;86;21204;-77
2021/08/02 01:09:02;;;;;;;15.90;13.08;;;;;;;14.69;80.63;99723.02;1641682;87;21038;-77
2021/08/02 01:11:28;;;;;;;17.00;13.32;;;;;;;14.69;80.66;99735.09;1647343;87;21099;-78
2021/08/02 01:13:55;;;;;;;13.98;12.53;;;;;;;14.68;80.48;99730.75;1631229;87;21858;-78
2021/08/02 01:16:21;;;;;;;16.15;12.90;;;;;;;14.68;80.72;99733.44;1623116;87;21050;-78
2021/08/02 01:18:47;;;;;;;13.85;11.70;;;;;;;14.66;80.74;99725.62;1636552;86;21075;-78
2021/08/02 01:21:14;;;;;;;17.90;11.95;;;;;;;14.66;80.77;99729.64;1646996;86;21071;-78
2021/08/02 01:23:40;;;;;;;13.98;11.48;;;;;;;14.65;80.79;99746.77;1644511;86;21018;-78
2021/08/02 01:26:44;;;;;;;17.40;11.83;;;;;;;14.66;80.82;99747.59;1640008;86;21073;-78
2021/08/02 01:30:05;;;;;;;15.10;12.25;;;;;;;14.65;80.85;99749.97;1651441;86;21046;-78
2021/08/02 01:32:31;;;;;;;12.18;10.98;;;;;;;14.63;80.88;99758.77;1651803;86;21527;-78
2021/08/02 01:34:57;;;;;;;20.60;12.37;;;;;;;14.60;80.93;99756.51;1651698;86;21508;-77
2021/08/02 01:37:23;;;;;;;15.93;12.95;;;;;;;14.57;80.98;99759.08;1651557;86;21087;-77
2021/08/02 01:39:53;;;;;;;19.25;13.30;;;;;;;14.56;81.02;99760.64;1651561;86;21106;-77
2021/08/02 01:42:19;;;;;;;16.17;12.43;;;;;;;14.54;81.04;99765.37;1651829;86;21063;-77
2021/08/02 01:44:46;;;;;;;15.53;11.53;;;;;;;14.51;81.06;99767.98;1651458;86;21778;-77
2021/08/02 01:47:32;;;;;;;14.93;12.13;;;;;;;14.49;81.08;99768.17;1651659;86;21086;-77
2021/08/02 01:50:32;;;;;;;21.60;12.33;;;;;;;14.48;81.14;99776.45;1651512;86;21551;-77
2021/08/02 01:53:18;;;;;;;13.03;10.48;;;;;;;14.45;81.19;99768.31;1651454;86;21050;-77
2021/08/02 01:55:49;;;;;;;15.15;11.85;;;;;;;14.33;81.25;99755.19;1651693;86;21011;-77
2021/08/02 01:58:15;;;;;;;13.30;11.90;;;;;;;14.33;81.25;99755.19;1651521;86;21257;-78
2021/08/02 02:00:46;;;;;;;15.83;11.60;;;;;;;14.32;81.26;99756.22;1651560;86;21073;-78
2021/08/02 02:03:24;;;;;;;14.53;13.00;;;;;;;14.32;81.26;99756.22;1651636;86;21055;-77
2021/08/02 02:05:57;;;;;;;14.03;11.95;;;;;;;14.43;81.37;99782.44;1651344;85;21061;-77
2021/08/02 02:08:27;;;;;;;14.20;11.97;;;;;;;14.43;81.40;99782.95;1650771;86;21519;-77
2021/08/02 02:10:56;;;;;;;18.23;12.58;;;;;;;14.43;81.43;99782.95;1651040;86;21458;-77
2021/08/02 02:13:30;;;;;;;19.40;12.80;;;;;;;14.42;81.45;99789.38;1651731;86;21531;-77
2021/08/02 02:15:57;;;;;;;17.77;11.20;;;;;;;14.41;81.49;99787.20;1630170;86;21084;-77
2021/08/02 02:18:24;;;;;;;18.25;12.13;;;;;;;14.43;81.51;99791.00;1651622;86;21024;-77
2021/08/02 02:20:50;;;;;;;12.85;11.55;;;;;;;14.42;81.53;99788.03;1651485;86;21062;-77
2021/08/02 02:23:16;;;;;;;14.33;12.82;;;;;;;14.43;81.56;99794.52;1664802;85;21145;-77
2021/08/02 02:25:42;;;;;;;13.25;11.83;;;;;;;14.45;81.61;99799.17;1652610;85;21499;-77
2021/08/02 02:28:10;;;;;;;14.55;11.85;;;;;;;14.46;81.63;99799.45;1651530;86;21091;-77
2021/08/02 02:30:36;;;;;;;14.33;12.15;;;;;;;14.36;81.77;99786.99;1651723;86;21365;-77
2021/08/02 02:33:04;;;;;;;16.42;11.30;;;;;;;14.36;81.77;99786.99;1651715;86;21054;-77
2021/08/02 02:35:30;;;;;;;14.35;11.70;;;;;;;14.47;81.76;99805.13;1651532;86;21743;-77
2021/08/02 02:37:56;;;;;;;11.83;10.70;;;;;;;14.47;81.79;99805.13;1642950;86;21026;-77
2021/08/02 02:40:22;;;;;;;13.72;11.00;;;;;;;14.46;81.82;99808.84;1651575;86;21090;-77
2021/08/02 02:42:48;;;;;;;13.62;12.10;;;;;;;14.46;81.87;99806.16;1651797;86;21126;-77
2021/08/02 02:45:14;;;;;;;15.90;11.78;;;;;;;14.47;81.90;99807.82;1651444;86;21570;-77
2021/08/02 02:47:40;;;;;;;12.60;11.28;;;;;;;14.45;81.96;99801.84;1651633;86;21807;-77
2021/08/02 02:50:07;;;;;;;14.78;11.90;;;;;;;14.44;82.01;99812.27;1651407;86;21015;-77
2021/08/02 02:52:33;;;;;;;15.38;11.70;;;;;;;14.42;82.05;99814.34;1651651;86;21041;-77
2021/08/02 02:54:59;;;;;;;13.48;11.40;;;;;;;14.40;82.10;99812.38;1651339;86;21098;-77
2021/08/02 02:57:25;;;;;;;12.85;10.90;;;;;;;14.38;82.14;99812.28;1634748;86;21087;-77
2021/08/02 02:59:51;;;;;;;15.08;11.95;;;;;;;14.35;82.17;99820.23;1651860;86;21165;-77
2021/08/02 03:02:17;;;;;;;13.43;11.90;;;;;;;14.30;82.23;99824.53;1657160;85;21516;-77
2021/08/02 03:04:45;;;;;;;13.38;10.82;;;;;;;14.30;82.23;99824.53;1670561;85;21494;-77
2021/08/02 03:07:12;;;;;;;16.93;11.80;;;;;;;14.28;82.24;99826.61;1670499;84;20986;-77
2021/08/02 03:09:41;;;;;;;13.65;12.30;;;;;;;14.27;82.33;99830.31;1641690;86;21558;-77
2021/08/02 03:12:07;;;;;;;15.40;11.68;;;;;;;14.26;82.36;99838.04;1651302;86;21830;-77
2021/08/02 03:14:34;;;;;;;16.10;11.88;;;;;;;14.25;82.42;99840.44;1651523;86;21027;-77
2021/08/02 03:17:00;;;;;;;13.68;11.88;;;;;;;14.24;82.43;99836.92;1651669;86;21508;-77
2021/08/02 03:19:26;;;;;;;13.58;11.85;;;;;;;14.25;82.46;99838.55;1651606;86;21050;-78
2021/08/02 03:21:52;;;;;;;16.97;11.70;;;;;;;14.25;82.47;99843.91;1651751;86;21049;-77
2021/08/02 03:24:30;;;;;;;13.32;11.63;;;;;;;14.27;82.52;99854.45;1651566;86;21153;-77
2021/08/02 03:27:01;;;;;;;15.43;12.78;;;;;;;14.27;82.54;99855.28;1651526;86;21031;-77
2021/08/02 03:29:38;;;;;;;14.20;10.65;;;;;;;14.28;82.56;99860.96;1651630;86;21504;-77
2021/08/02 03:32:10;;;;;;;12.40;11.08;;;;;;;14.29;82.58;99863.10;1651489;86;21041;-77
2021/08/02 03:34:36;;;;;;;12.95;11.40;;;;;;;14.29;82.60;99863.93;1651752;86;21042;-77
2021/08/02 03:37:05;;;;;;;13.05;11.75;;;;;;;14.31;82.62;99867.77;1651471;86;21187;-77
2021/08/02 03:39:31;;;;;;;12.00;10.30;;;;;;;14.33;82.66;99872.39;1629339;86;21039;-77
2021/08/02 03:41:57;;;;;;;12.25;10.72;;;;;;;14.34;82.67;99873.57;1651483;86;21042;-77
2021/08/02 03:44:23;;;;;;;11.57;10.35;;;;;;;14.35;82.72;99873.06;1607504;86;21487;-77
2021/08/02 03:46:50;;;;;;;11.33;10.13;;;;;;;14.35;82.75;99876.57;1651613;86;21032;-77
2021/08/02 03:49:16;;;;;;;13.90;10.88;;;;;;;14.35;82.79;99881.94;1651520;86;21174;-77
2021/08/02 03:51:59;;;;;;;11.43;10.32;;;;;;;14.34;82.79;99879.45;1651549;86;21058;-77
2021/08/02 03:54:26;;;;;;;13.03;10.70;;;;;;;14.33;82.83;99881.27;1650636;86;21534;-77
2021/08/02 03:56:52;;;;;;;11.00;9.43;;;;;;;14.33;82.85;99883.95;1651237;87;21057;-77
2021/08/02 03:59:18;;;;;;;11.53;10.30;;;;;;;14.33;82.85;99889.83;1651490;86;21069;-77
2021/08/02 04:01:45;;;;;;;14.55;11.53;;;;;;;14.33;82.88;99891.17;1651615;86;21632;-77
2021/08/02 04:04:11;;;;;;;12.25;10.28;;;;;;;14.32;82.89;99893.56;1651533;86;20996;-77
2021/08/02 04:06:37;;;;;;;12.88;9.53;;;;;;;14.32;82.91;99893.02;1651351;85;21050;-77
2021/08/02 04:09:06;;;;;;;11.38;9.83;;;;;;;14.33;82.90;99896.02;1651229;87;21027;-77
2021/08/02 04:11:32;;;;;;;13.58;9.93;;;;;;;14.34;82.92;99896.38;1658434;85;21029;-77
2021/08/02 04:13:58;;;;;;;10.90;9.80;;;;;;;14.36;82.94;99899.66;1659697;86;21136;-77
2021/08/02 04:16:24;;;;;;;11.85;10.03;;;;;;;14.38;82.98;99894.94;1659366;86;21072;-77
2021/08/02 04:18:51;;;;;;;14.58;9.90;;;;;;;14.42;82.99;99900.71;1659524;86;21064;-77
2021/08/02 04:21:17;;;;;;;11.63;10.08;;;;;;;14.42;82.99;99902.05;1650540;86;21505;-77
2021/08/02 04:23:43;;;;;;;10.65;9.55;;;;;;;14.45;83.01;99917.22;1651727;86;21020;-77
2021/08/02 04:26:12;;;;;;;16.20;10.23;;;;;;;14.46;83.02;99913.48;1658772;86;21595;-77
2021/08/02 04:28:40;;;;;;;15.80;10.40;;;;;;;14.48;83.04;99918.66;1659585;86;21085;-77
2021/08/02 04:31:06;;;;;;;11.53;9.55;;;;;;;14.49;83.05;99923.80;1656308;86;21066;-77
2021/08/02 04:33:32;;;;;;;14.65;9.53;;;;;;;14.52;83.08;99927.12;1648367;86;21033;-77
2021/08/02 04:35:58;;;;;;;12.58;9.30;;;;;;;14.53;83.10;99934.14;1648490;87;21129;-77
2021/08/02 04:38:24;;;;;;;14.30;9.05;;;;;;;14.54;83.12;99930.41;1648392;87;21591;-77
2021/08/02 04:40:50;;;;;;;13.08;8.65;;;;;;;14.52;83.13;99930.63;1657907;86;21024;-77
2021/08/02 04:43:16;;;;;;;11.48;9.60;;;;;;;14.53;83.15;99928.78;1659832;86;21061;-77
2021/08/02 04:45:42;;;;;;;11.45;10.35;;;;;;;14.59;83.19;99930.63;1659724;86;21127;-77
2021/08/02 04:48:08;;;;;;;9.83;8.83;;;;;;;14.70;83.21;99927.31;1659828;86;21057;-77
2021/08/02 04:50:34;;;;;;;10.78;9.43;;;;;;;14.86;83.21;99930.39;1657775;86;21208;-77
2021/08/02 04:53:00;;;;;;;11.78;9.50;;;;;;;14.95;83.19;99933.69;1659768;86;21072;-77
2021/08/02 04:55:27;;;;;;;10.18;8.98;;;;;;;15.02;83.18;99942.56;1658939;86;21048;-77
2021/08/02 04:57:53;;;;;;;9.88;8.75;;;;;;;15.28;83.41;99947.85;1655446;86;21045;-77
2021/08/02 05:00:19;;;;;;;9.05;8.18;;;;;;;15.39;83.54;99939.14;1648752;86;21094;-77
2021/08/02 05:02:45;;;;;;;11.25;8.38;;;;;;;15.49;82.93;99939.54;1657541;85;21947;-77
2021/08/02 05:05:11;;;;;;;9.08;8.18;;;;;;;15.49;82.93;99939.54;1673390;85;21002;-77
2021/08/02 05:07:38;;;;;;;9.90;6.85;;;;;;;15.48;83.02;99945.95;1668466;84;21617;-78
2021/08/02 05:10:05;;;;;;;9.68;8.45;;;;;;;15.44;82.95;99952.78;1659602;85;21551;-77
2021/08/02 05:12:31;;;;;;;8.18;7.37;;;;;;;15.43;82.89;99955.15;1651043;85;21064;-77
2021/08/02 05:15:04;;;;;;;9.60;7.97;;;;;;;15.47;82.83;99956.89;1649971;86;21127;-78
2021/08/02 05:17:30;;;;;;;11.78;7.25;;;;;;;15.49;82.75;99952.98;1672920;85;21546;-77
2021/08/02 05:19:56;;;;;;;8.85;7.95;;;;;;;15.47;82.69;99955.03;1657616;85;21054;-77
2021/08/02 05:22:22;;;;;;;9.68;8.53;;;;;;;15.56;82.65;99956.98;1642740;86;20995;-77
2021/08/02 05:24:48;;;;;;;9.95;7.03;;;;;;;15.68;82.58;99961.18;1650541;85;21064;-77
2021/08/02 05:27:14;;;;;;;8.45;6.80;;;;;;;15.85;82.50;99958.30;1647632;85;21172;-77
2021/08/02 05:29:40;;;;;;;7.05;6.35;;;;;;;15.89;82.43;99948.77;1660999;85;21042;-77
2021/08/02 05:32:06;;;;;;;8.30;6.67;;;;;;;15.93;82.40;99948.13;1646838;87;21049;-77
2021/08/02 05:34:32;;;;;;;15.15;8.10;;;;;;;16.02;82.30;99946.52;1651354;86;21060;-77
2021/08/02 05:36:58;;;;;;;8.95;7.25;;;;;;;16.15;82.20;99955.32;1670893;85;21119;-77
2021/08/02 05:39:24;;;;;;;8.38;6.25;;;;;;;16.31;82.10;99950.78;1668962;85;21164;-77
2021/08/02 05:41:50;;;;;;;11.33;6.55;;;;;;;16.36;81.98;99952.28;1670378;85;21036;-77
2021/08/02 05:44:16;;;;;;;8.60;6.12;;;;;;;16.39;81.84;99959.95;1667329;85;21086;-77
2021/08/02 05:46:43;;;;;;;6.80;5.95;;;;;;;16.52;81.74;99960.87;1647561;86;21492;-77
2021/08/02 05:49:10;;;;;;;10.78;5.75;;;;;;;16.49;81.61;99957.59;1632105;85;21107;-77
2021/08/02 05:51:36;;;;;;;10.30;6.35;;;;;;;16.40;81.50;99968.30;1647225;87;21308;-77
2021/08/02 05:54:02;;;;;;;7.78;6.22;;;;;;;16.42;81.37;99972.96;1649090;85;21002;-77
2021/08/02 05:56:28;;;;;;;8.30;5.92;;;;;;;16.37;81.22;99970.09;1655740;85;21032;-77
2021/08/02 05:58:54;;;;;;;8.48;5.95;;;;;;;16.35;81.11;99972.70;1664745;85;21071;-77
2021/08/02 06:01:20;;;;;;;9.13;6.17;;;;;;;16.34;81.03;99986.67;1659950;85;21026;-77
2021/08/02 06:03:46;;;;;;;6.60;5.87;;;;;;;16.36;80.94;99980.54;1655619;85;21121;-77
2021/08/02 06:06:12;;;;;;;6.33;5.58;;;;;;;16.54;80.86;99985.72;1647472;85;20995;-77
2021/08/02 06:08:39;;;;;;;9.30;4.92;;;;;;;16.76;80.69;99984.31;1647069;85;21010;-77
2021/08/02 06:11:06;;;;;;;6.05;5.25;;;;;;;17.12;80.56;99988.97;1637809;85;21507;-77
2021/08/02 06:13:32;;;;;;;6.45;5.12;;;;;;;17.29;80.32;99992.73;1622575;87;21555;-77
2021/08/02 06:15:58;;;;;;;6.65;5.20;;;;;;;17.45;80.15;99992.95;1622897;87;21155;-77
2021/08/02 06:18:24;;;;;;;6.92;5.17;;;;;;;17.47;79.87;99996.27;1644981;87;21478;-77
2021/08/02 06:20:50;;;;;;;8.80;5.25;;;;;;;17.43;79.70;99990.19;1656078;86;21015;-77
2021/08/02 06:23:16;;;;;;;7.12;4.58;;;;;;;17.37;79.54;99988.39;1666622;85;21062;-78
2021/08/02 06:25:42;;;;;;;6.65;4.65;;;;;;;17.40;79.46;99990.12;1670241;85;21013;-78
2021/08/02 06:28:08;;;;;;;10.23;5.00;;;;;;;17.34;79.28;99991.02;1672448;85;21077;-78
2021/08/02 06:30:34;;;;;;;5.90;4.80;;;;;;;17.33;79.23;100000.16;1647460;85;20982;-78
2021/08/02 06:33:00;;;;;;;10.88;4.72;;;;;;;17.27;79.06;99992.97;1670358;85;21053;-78
2021/08/02 06:35:26;;;;;;;6.75;4.20;;;;;;;17.19;78.92;99998.64;1672205;85;21025;-78
2021/08/02 06:37:53;;;;;;;4.70;4.08;;;;;;;17.13;78.75;100002.23;1655357;85;21578;-78
2021/08/02 06:40:19;;;;;;;6.80;4.42;;;;;;;17.02;78.55;100005.64;1672688;85;21793;-78
2021/08/02 06:42:45;;;;;;;5.50;4.33;;;;;;;17.05;78.48;100007.89;1649924;85;21535;-79
2021/08/02 06:45:11;;;;;;;6.42;5.15;;;;;;;17.10;78.37;100009.94;1626010;87;21077;-78
2021/08/02 06:47:37;;;;;;;9.58;4.90;;;;;;;17.12;78.19;100011.35;1658543;85;21054;-79
2021/08/02 06:50:05;;;;;;;6.70;4.37;;;;;;;17.18;78.08;100006.41;1644508;86;21050;-78
2021/08/02 06:52:31;;;;;;;11.68;4.97;;;;;;;17.31;77.96;100008.97;1642879;86;21228;-77
2021/08/02 06:54:57;;;;;;;5.47;4.08;;;;;;;17.42;77.82;100013.63;1658793;85;21506;-77
2021/08/02 06:57:23;;;;;;;6.78;4.28;;;;;;;17.59;77.68;100011.19;1649557;85;21005;-77
2021/08/02 06:59:49;;;;;;;5.12;4.33;;;;;;;17.80;77.49;100012.63;1645339;85;21050;-76
2021/08/02 07:02:15;;;;;;;7.03;4.25;;;;;;;17.99;77.32;100016.93;1660111;85;21031;-77
2021/08/02 07:04:41;;;;;;;5.50;3.42;;;;;;;18.17;77.13;100023.65;1667087;85;21155;-77
2021/08/02 07:07:07;;;;;;;9.83;3.87;;;;;;;18.23;76.74;100024.59;1672521;84;21049;-77
2021/08/02 07:09:33;;;;;;;8.10;3.33;;;;;;;18.34;76.56;100016.55;1665693;85;21039;-77
2021/08/02 07:11:59;;;;;;;5.30;3.65;;;;;;;18.36;76.36;100022.56;1641450;86;21614;-76
2021/08/02 07:14:25;;;;;;;4.78;3.70;;;;;;;18.17;76.07;100022.82;1637527;87;21641;-77
2021/08/02 07:16:51;;;;;;;5.28;3.70;;;;;;;17.94;75.87;100024.91;1638537;86;21800;-77
2021/08/02 07:19:17;;;;;;;7.60;4.10;;;;;;;17.88;75.81;100028.48;1665449;84;21038;-76
2021/08/02 07:21:43;;;;;;;16.67;4.33;;;;;;;17.81;75.60;100027.73;1664762;85;21083;-77
2021/08/02 07:24:09;;;;;;;6.65;4.00;;;;;;;17.88;75.56;100029.31;1647919;87;21031;-77
2021/08/02 07:26:35;;;;;;;7.00;4.15;;;;;;;17.96;75.39;100032.23;1661703;85;21027;-77
2021/08/02 07:29:02;;;;;;;7.12;4.42;;;;;;;17.94;75.25;100034.34;1671372;84;21053;-77
2021/08/02 07:31:28;;;;;;;6.60;3.75;;;;;;;18.24;75.24;100029.78;1671357;85;21009;-78
2021/08/02 07:33:55;;;;;;;5.00;3.58;;;;;;;18.78;75.05;100033.39;1652514;85;21057;-78
2021/08/02 07:36:21;;;;;;;6.37;3.47;;;;;;;19.06;74.72;100026.79;1659739;85;21046;-77
2021/08/02 07:38:47;;;;;;;6.95;3.17;;;;;;;18.99;74.38;100025.25;1690115;84;21084;-77
2021/08/02 07:41:14;;;;;;;7.50;3.12;;;;;;;19.00;74.19;100027.70;1669813;84;21946;-78
2021/08/02 07:43:40;;;;;;;5.25;3.17;;;;;;;19.06;73.99;100031.36;1643462;87;21598;-77
2021/08/02 07:46:06;;;;;;;8.45;3.40;;;;;;;19.01;73.68;100033.41;1631851;86;21022;-77
2021/08/02 07:48:32;;;;;;;11.75;3.40;;;;;;;18.96;73.51;100030.60;1645974;87;21110;-77
2021/08/02 07:50:58;;;;;;;4.67;3.00;;;;;;;18.86;73.26;100034.38;1647340;87;21066;-77
2021/08/02 07:53:24;;;;;;;5.03;3.47;;;;;;;18.76;72.96;100035.48;1648444;85;21156;-77
2021/08/02 07:55:50;;;;;;;6.12;3.25;;;;;;;18.65;72.80;100041.67;1647785;87;21048;-77
2021/08/02 07:58:16;;;;;;;6.33;3.52;;;;;;;18.65;72.69;100043.02;1659393;85;21025;-77
2021/08/02 08:00:42;;;;;;;3.83;3.20;;;;;;;18.78;72.57;100036.92;1633400;87;21069;-77
2021/08/02 08:03:08;;;;;;;4.92;3.37;;;;;;;19.06;72.40;100039.48;1621597;87;21064;-76
2021/08/02 08:05:34;;;;;;;9.65;3.67;;;;;;;18.99;72.00;100045.00;1646784;87;21931;-77
2021/08/02 08:08:00;;;;;;;8.05;3.15;;;;;;;18.99;71.87;100046.34;1647299;85;21556;-81
2021/08/02 08:10:27;;;;;;;4.12;3.67;;;;;;;19.16;71.72;100047.30;1649295;85;21043;-76
2021/08/02 08:12:54;;;;;;;6.00;3.08;;;;;;;19.39;71.63;100047.29;1632320;87;21037;-77
2021/08/02 08:15:21;;;;;;;12.07;3.37;;;;;;;20.02;71.51;100051.92;1629145;87;21077;-77
2021/08/02 08:17:47;;;;;;;7.00;3.87;;;;;;;20.38;71.01;100053.48;1622343;88;21322;-77
2021/08/02 08:20:15;;;;;;;12.28;3.10;;;;;;;20.17;70.55;100052.23;1624208;88;21550;-77
2021/08/02 08:22:41;;;;;;;6.37;2.95;;;;;;;19.84;70.43;100055.61;1625485;87;21084;-77
2021/08/02 08:25:08;;;;;;;7.83;3.33;;;;;;;19.49;70.24;100054.04;1624104;87;21092;-77
2021/08/02 08:27:35;;;;;;;5.83;3.42;;;;;;;19.17;70.04;100059.77;1624264;87;21165;-78
2021/08/02 08:30:04;;;;;;;3.52;3.17;;;;;;;18.95;69.98;100060.02;1624133;88;21106;-78
2021/08/02 08:32:30;;;;;;;6.22;3.42;;;;;;;19.00;70.01;100062.84;1624261;88;21022;-78
2021/08/02 08:34:56;;;;;;;6.95;3.65;;;;;;;19.21;69.98;100051.45;1619541;88;21510;-78
2021/08/02 08:37:22;;;;;;;5.55;3.12;;;;;;;19.51;69.91;100051.91;1651499;85;21025;-78
2021/08/02 08:39:48;;;;;;;5.53;3.10;;;;;;;19.78;69.77;100058.45;1649826;85;21078;-77
2021/08/02 08:42:14;;;;;;;3.83;2.87;;;;;;;19.97;69.44;100056.42;1650650;86;21881;-78
2021/08/02 08:44:40;;;;;;;3.67;3.35;;;;;;;20.28;69.32;100059.53;1651272;86;21013;-78
2021/08/02 08:47:06;;;;;;;5.42;3.27;;;;;;;20.57;68.97;100045.45;1651384;86;21073;-78
2021/08/02 08:49:33;;;;;;;6.25;3.30;;;;;;;20.86;68.75;100044.88;1651232;86;21025;-78
2021/08/02 08:51:59;;;;;;;5.45;2.90;;;;;;;21.04;68.42;100049.23;1650520;85;21065;-78
2021/08/02 08:54:25;;;;;;;7.65;3.20;;;;;;;21.03;67.95;100042.98;1650834;86;21688;-78
2021/08/02 08:56:52;;;;;;;4.33;2.40;;;;;;;20.88;67.55;100053.57;1651336;85;21062;-78
2021/08/02 08:59:19;;;;;;;5.17;3.27;;;;;;;20.64;67.08;100057.48;1649832;85;21038;-78
2021/08/02 09:01:45;;;;;;;7.90;3.42;;;;;;;20.92;67.10;100049.30;1653116;85;20970;-76
2021/08/02 09:04:11;;;;;;;2.95;2.60;;;;;;;21.35;66.81;100044.06;1650730;86;21041;-78
2021/08/02 09:06:49;;;;;;;3.12;2.52;;;;;;;21.38;66.23;100046.81;1650220;86;21672;-76
2021/08/02 09:09:32;;;;;;;3.67;2.25;;;;;;;21.39;65.80;100050.61;1655393;85;21025;-77
2021/08/02 09:12:19;;;;;;;3.65;2.65;;;;;;;21.45;65.24;100047.98;1653736;86;21077;-77
2021/08/02 09:14:54;;;;;;;4.08;2.40;;;;;;;21.33;64.42;100053.50;1646803;85;21051;-77
2021/08/02 09:17:34;;;;;;;7.47;2.33;;;;;;;21.46;64.01;100051.83;1672888;84;21096;-76
2021/08/02 09:20:02;;;;;;;3.75;2.05;;;;;;;21.63;63.40;100050.42;1642098;85;22440;-71
2021/08/02 09:22:30;;;;;;;6.72;2.65;;;;;;;21.86;63.09;100052.89;1638457;86;21031;-70
2021/08/02 09:25:10;;;;;;;3.02;1.70;;;;;;;22.04;62.43;100058.58;1658042;85;21054;-70
2021/08/02 09:27:37;;;;;;;5.03;1.87;;;;;;;22.11;61.79;100061.39;1636449;86;21461;-70
2021/08/02 09:30:17;;;;;;;2.95;1.82;;;;;;;22.38;61.33;100059.52;1649939;85;21081;-70
2021/08/02 09:33:04;;;;;;;3.30;2.37;;;;;;;22.44;60.55;100068.57;1649069;86;21734;-70
2021/08/02 09:35:37;;;;;;;2.77;1.57;;;;;;;22.21;59.48;100069.66;1669712;85;21029;-70
2021/08/02 09:38:11;;;;;;;3.98;1.95;;;;;;;21.77;59.18;100067.99;1657537;84;21039;-70
2021/08/02 09:40:44;;;;;;;3.40;1.60;;;;;;;21.77;59.20;100066.63;1675360;85;21013;-69
2021/08/02 09:43:20;;;;;;;3.90;1.60;;;;;;;22.10;59.04;100073.33;1671673;85;21434;-69
2021/08/02 09:45:52;;;;;;;2.10;1.90;;;;;;;21.94;58.24;100062.53;1667750;85;21736;-69
2021/08/02 09:48:19;;;;;;;3.12;1.72;;;;;;;21.35;57.72;100077.98;1690205;84;21002;-69
2021/08/02 09:50:47;;;;;;;5.47;2.05;;;;;;;21.01;57.87;100076.29;1660771;86;20995;-69
2021/08/02 09:53:18;;;;;;;7.70;2.33;;;;;;;20.92;58.04;100079.12;1651832;85;21069;-69
2021/08/02 09:55:46;;;;;;;2.62;1.92;;;;;;;21.05;58.12;100074.73;1646342;85;21030;-70
2021/08/02 09:58:21;;;;;;;4.25;2.10;;;;;;;21.15;58.07;100073.57;1673639;84;21640;-71
2021/08/02 10:00:47;;;;;;;5.47;2.67;;;;;;;21.34;58.16;100080.93;1678602;84;21127;-70
2021/08/02 10:03:16;;;;;;;2.87;1.82;;;;;;;21.64;58.16;100075.94;1661827;86;21016;-70
2021/08/02 10:05:42;;;;;;;4.65;1.70;;;;;;;22.04;57.81;100074.34;1663003;85;21004;-70
2021/08/02 10:08:08;;;;;;;3.20;1.20;;;;;;;22.13;57.34;100089.11;1649974;85;20961;-70
2021/08/02 10:10:37;;;;;;;5.08;1.55;;;;;;;21.85;56.69;100079.75;1658578;85;21773;-70
2021/08/02 10:13:04;;;;;;;2.87;1.85;;;;;;;21.78;56.40;100085.90;1661155;85;20915;-69
2021/08/02 10:15:30;;;;;;;2.60;1.50;;;;;;;22.06;56.47;100085.77;1640863;87;21046;-69
2021/08/02 10:18:04;;;;;;;4.55;1.70;;;;;;;22.16;56.30;100091.35;1622989;88;21035;-70
2021/08/02 10:20:34;;;;;;;4.85;1.62;;;;;;;21.93;55.54;100090.75;1623055;88;21062;-70
2021/08/02 10:23:02;;;;;;;3.52;1.90;;;;;;;21.61;55.55;100087.83;1629962;87;21508;-77
2021/08/02 10:25:39;;;;;;;2.10;1.90;;;;;;;21.39;55.67;100085.09;1633428;87;21054;-78
2021/08/02 10:28:14;;;;;;;3.98;1.92;;;;;;;21.23;55.68;100086.73;1622679;87;21019;-78
2021/08/02 10:30:42;;;;;;;5.92;1.70;;;;;;;21.09;55.74;100090.80;1632909;87;21071;-78
2021/08/02 10:33:09;;;;;;;2.40;1.80;;;;;;;20.82;55.65;100095.22;1635396;87;21050;-78
2021/08/02 10:35:42;;;;;;;3.35;1.90;;;;;;;20.58;55.87;100100.47;1636764;87;21257;-78
2021/08/02 10:38:14;;;;;;;3.55;1.80;;;;;;;20.38;56.09;100103.06;1636610;87;21087;-78
2021/08/02 10:40:56;;;;;;;2.75;1.75;;;;;;;20.10;56.29;100110.29;1636733;87;21039;-78
2021/08/02 10:43:36;;;;;;;3.12;1.70;;;;;;;19.93;56.57;100107.51;1613391;87;21051;-78
2021/08/02 10:46:26;;;;;;;2.10;1.80;;;;;;;19.87;56.83;100109.30;1636754;87;21555;-78
2021/08/02 10:48:54;;;;;;;2.98;2.20;;;;;;;20.00;57.05;100109.55;1604572;88;21957;-78
2021/08/02 10:51:23;;;;;;;3.72;2.42;;;;;;;20.35;57.36;100095.95;1620348;87;21011;-78
2021/08/02 10:54:00;;;;;;;1.95;1.77;;;;;;;20.64;57.28;100106.27;1620496;88;21117;-78
2021/08/02 10:56:27;;;;;;;4.00;1.90;;;;;;;20.85;57.23;100106.40;1605632;88;21027;-78
2021/08/02 10:58:53;;;;;;;5.00;1.85;;;;;;;20.85;57.10;100105.58;1620598;88;21566;-78
2021/08/02 11:01:20;;;;;;;3.90;1.67;;;;;;;20.95;57.22;100105.75;1620389;88;22018;-78
2021/08/02 11:03:46;;;;;;;2.65;1.72;;;;;;;21.15;57.04;100102.58;1620294;88;21072;-78
2021/08/02 11:06:16;;;;;;;2.15;1.80;;;;;;;21.02;56.68;100098.28;1604588;88;21079;-78
2021/08/02 11:08:49;;;;;;;2.35;1.60;;;;;;;20.84;56.65;100112.05;1620109;87;21063;-78
2021/08/02 11:11:24;;;;;;;4.15;1.57;;;;;;;20.77;56.69;100100.54;1620436;88;21531;-78
2021/08/02 11:13:51;;;;;;;1.80;1.60;;;;;;;20.94;56.82;100106.80;1635875;86;21291;-76
2021/08/02 11:16:18;;;;;;;2.58;1.72;;;;;;;21.04;56.62;100105.63;1647398;87;21086;-76
2021/08/02 11:18:45;;;;;;;7.30;2.17;;;;;;;21.03;56.25;100105.36;1665251;86;21024;-76
2021/08/02 11:21:23;;;;;;;5.42;1.92;;;;;;;21.16;56.04;100097.45;1665253;86;21548;-76
2021/08/02 11:23:49;;;;;;;3.58;1.85;;;;;;;21.39;55.85;100098.09;1664942;86;21031;-76
2021/08/02 11:26:16;;;;;;;2.85;1.60;;;;;;;21.60;55.36;100101.14;1664984;86;21651;-76
2021/08/02 11:28:45;;;;;;;6.62;1.72;;;;;;;21.52;54.71;100097.48;1665125;86;21020;-76
2021/08/02 11:31:11;;;;;;;3.72;2.15;;;;;;;21.31;54.53;100094.46;1665191;86;21045;-77